CMB862 Details

Departure: Keflavík International Airport (BIKF)
Arrival: Norfolk Naval Station (Chambers Field) (KNGU)
Route: RALOV1D RALOV RAKIS 6235N N6040 5944N 5650N YAY J580 YQY YQI J585 ACK J62 RIFLE J174 SWL RAPTR
Notes: USTRANSCOM CONTRACT FLIGHT


Current Weather Information
BIKF 212300Z 05005KT 9999 SCT024 BKN028 08/07 Q1024
KNGU 212259Z 04011G18KT 10SM FEW080 BKN300 21/12 A3005 RMK AO2 SLP176 T02110117